createdAt,value
2022-10-23T00:00:49.079Z,15.71
2022-10-23T00:03:20.955Z,15.70
2022-10-23T00:05:52.865Z,15.68
2022-10-23T00:08:24.693Z,15.66
2022-10-23T00:10:56.588Z,15.65
2022-10-23T00:13:28.784Z,15.61
2022-10-23T00:16:00.582Z,15.61
2022-10-23T00:18:32.743Z,15.57
2022-10-23T00:21:05.676Z,15.56
2022-10-23T00:23:37.679Z,15.54
2022-10-23T00:26:15.662Z,15.50
2022-10-23T00:28:50.899Z,15.47
2022-10-23T00:31:24.346Z,15.44
2022-10-23T00:33:56.257Z,15.41
2022-10-23T00:36:28.057Z,15.39
2022-10-23T00:39:00.242Z,15.38
2022-10-23T00:41:32.735Z,15.37
2022-10-23T00:44:11.137Z,15.36
2022-10-23T00:46:42.902Z,15.35
2022-10-23T00:49:15.396Z,15.34
2022-10-23T00:51:50.289Z,15.35
2022-10-23T00:54:25.642Z,15.33
2022-10-23T00:56:59.864Z,15.33
2022-10-23T00:59:32.576Z,15.31
2022-10-23T01:02:05.513Z,15.31
2022-10-23T01:04:37.543Z,15.30
2022-10-23T01:07:25.071Z,15.31
2022-10-23T01:10:33.162Z,15.31
2022-10-23T01:13:12.907Z,15.30
2022-10-23T01:16:00.761Z,15.31
2022-10-23T01:18:38.976Z,15.29
2022-10-23T01:21:29.215Z,15.30
2022-10-23T01:24:19.712Z,15.27
2022-10-23T01:26:59.134Z,15.25
2022-10-23T01:29:41.446Z,15.24
2022-10-23T01:32:15.401Z,15.23
2022-10-23T01:34:52.021Z,15.24
2022-10-23T01:37:41.692Z,15.24
2022-10-23T01:40:27.538Z,15.24
2022-10-23T01:43:05.339Z,15.25
2022-10-23T01:45:45.970Z,15.26
2022-10-23T01:48:27.851Z,15.25
2022-10-23T01:51:03.871Z,15.24
2022-10-23T01:53:41.267Z,15.24
2022-10-23T01:56:27.313Z,15.24
2022-10-23T01:59:03.224Z,15.22
2022-10-23T02:01:42.107Z,15.22
2022-10-23T02:04:19.156Z,15.23
2022-10-23T02:06:51.020Z,15.21
2022-10-23T02:09:23.027Z,15.21
2022-10-23T02:12:29.385Z,15.19
2022-10-23T02:15:25.683Z,15.21
2022-10-23T02:18:05.693Z,15.22
2022-10-23T02:20:47.943Z,15.21
2022-10-23T02:23:36.014Z,15.20
2022-10-23T02:26:31.225Z,15.20
2022-10-23T02:29:09.431Z,15.20
2022-10-23T02:31:43.666Z,15.18
2022-10-23T02:34:15.610Z,15.19
2022-10-23T02:36:47.499Z,15.20
2022-10-23T02:39:22.581Z,15.19
2022-10-23T02:41:54.642Z,15.20
2022-10-23T02:44:44.675Z,15.19
2022-10-23T02:47:25.070Z,15.19
2022-10-23T02:50:08.186Z,15.16
2022-10-23T02:52:50.791Z,15.12
2022-10-23T02:55:41.705Z,15.08
2022-10-23T02:58:19.224Z,15.05
2022-10-23T03:01:06.087Z,15.05
2022-10-23T03:03:41.990Z,15.04
2022-10-23T03:06:13.882Z,15.03
2022-10-23T03:08:52.957Z,15.02
2022-10-23T03:11:24.847Z,15.02
2022-10-23T03:13:56.866Z,15.04
2022-10-23T03:16:28.740Z,15.04
2022-10-23T03:19:00.679Z,15.03
2022-10-23T03:21:32.606Z,15.02
2022-10-23T03:24:04.536Z,15.00
2022-10-23T03:26:42.425Z,14.99
2022-10-23T03:29:15.042Z,14.98
2022-10-23T03:31:50.696Z,14.97
2022-10-23T03:34:23.306Z,14.96
2022-10-23T03:36:57.934Z,14.93
2022-10-23T03:39:29.894Z,14.91
2022-10-23T03:42:02.187Z,14.90
2022-10-23T03:44:35.437Z,14.87
2022-10-23T03:47:10.078Z,14.83
2022-10-23T03:49:41.956Z,14.79
2022-10-23T03:52:13.959Z,14.77
2022-10-23T03:54:45.949Z,14.74
2022-10-23T03:57:17.823Z,14.72
2022-10-23T03:59:50.016Z,14.71
2022-10-23T04:02:22.832Z,14.68
2022-10-23T04:04:57.534Z,14.69
2022-10-23T04:07:29.552Z,14.65
2022-10-23T04:10:05.198Z,14.62
2022-10-23T04:12:38.142Z,14.59
2022-10-23T04:15:11.207Z,14.59
2022-10-23T04:17:45.431Z,14.57
2022-10-23T04:20:18.215Z,14.54
2022-10-23T04:22:50.009Z,14.50
2022-10-23T04:25:22.949Z,14.46
2022-10-23T04:27:55.532Z,14.44
2022-10-23T04:30:27.647Z,14.40
2022-10-23T04:33:00.554Z,14.38
2022-10-23T04:35:34.255Z,14.36
2022-10-23T04:38:06.261Z,14.34
2022-10-23T04:40:38.574Z,14.32
2022-10-23T04:43:10.586Z,14.31
2022-10-23T04:45:44.724Z,14.30
2022-10-23T04:48:16.801Z,14.28
2022-10-23T04:51:18.053Z,14.26
2022-10-23T04:54:04.155Z,14.23
2022-10-23T04:56:47.696Z,14.19
2022-10-23T04:59:22.813Z,14.17
2022-10-23T05:01:55.134Z,14.15
2022-10-23T05:04:28.745Z,14.15
2022-10-23T05:07:36.492Z,14.11
2022-10-23T05:10:18.683Z,14.09
2022-10-23T05:13:00.583Z,14.04
2022-10-23T05:15:33.579Z,13.98
2022-10-23T05:18:13.042Z,13.96
2022-10-23T05:20:45.722Z,13.94
2022-10-23T05:23:19.818Z,13.93
2022-10-23T05:26:03.219Z,13.91
2022-10-23T05:28:36.573Z,13.88
2022-10-23T05:31:09.618Z,13.87
2022-10-23T05:33:44.275Z,13.87
2022-10-23T05:36:16.912Z,13.84
2022-10-23T05:38:49.947Z,13.84
2022-10-23T05:41:23.333Z,13.84
2022-10-23T05:43:55.392Z,13.83
2022-10-23T05:46:47.485Z,13.80
2022-10-23T05:49:50.788Z,13.76
2022-10-23T05:52:25.212Z,13.74
2022-10-23T05:55:10.527Z,13.70
2022-10-23T05:57:53.917Z,13.67
2022-10-23T06:00:37.970Z,13.65
2022-10-23T06:03:29.868Z,13.63
2022-10-23T06:06:02.299Z,13.61
2022-10-23T06:08:45.431Z,13.57
2022-10-23T06:11:18.133Z,13.53
2022-10-23T06:14:00.956Z,13.47
2022-10-23T06:16:34.287Z,13.43
2022-10-23T06:19:06.317Z,13.39
2022-10-23T06:21:39.421Z,13.38
2022-10-23T06:24:11.727Z,13.36
2022-10-23T06:26:55.685Z,13.33
2022-10-23T06:29:39.890Z,13.33
2022-10-23T06:32:11.934Z,13.30
2022-10-23T06:34:45.231Z,13.25
2022-10-23T06:37:18.091Z,13.24
2022-10-23T06:40:16.337Z,13.24
2022-10-23T06:42:59.652Z,13.22
2022-10-23T06:46:02.838Z,13.18
2022-10-23T06:49:03.804Z,13.17
2022-10-23T06:51:39.288Z,13.18
2022-10-23T06:54:15.374Z,13.16
2022-10-23T06:56:56.158Z,13.17
2022-10-23T06:59:36.697Z,13.19
2022-10-23T07:02:09.381Z,13.22
2022-10-23T07:04:41.381Z,13.25
2022-10-23T07:07:19.585Z,13.28
2022-10-23T07:09:53.653Z,13.27
2022-10-23T07:12:30.041Z,13.28
2022-10-23T07:15:21.839Z,13.27
2022-10-23T07:17:53.902Z,13.27
2022-10-23T07:20:27.325Z,13.26
2022-10-23T07:22:59.317Z,13.24
2022-10-23T07:25:35.019Z,13.22
2022-10-23T07:28:07.405Z,13.22
2022-10-23T07:30:40.989Z,13.21
2022-10-23T07:33:13.815Z,13.20
2022-10-23T07:35:53.694Z,13.22
2022-10-23T07:38:31.519Z,13.23
2022-10-23T07:41:03.710Z,13.26
2022-10-23T07:43:37.008Z,13.33
2022-10-23T07:46:09.953Z,13.35
2022-10-23T07:48:45.263Z,13.40
2022-10-23T07:51:17.702Z,13.43
2022-10-23T07:53:52.395Z,13.48
2022-10-23T07:56:40.169Z,13.53
2022-10-23T07:59:20.443Z,13.58
2022-10-23T08:01:58.278Z,13.63
2022-10-23T08:04:36.754Z,13.69
2022-10-23T08:07:28.353Z,13.77
2022-10-23T08:10:03.010Z,13.82
2022-10-23T08:12:37.552Z,13.87
2022-10-23T08:15:10.372Z,13.94
2022-10-23T08:17:57.249Z,14.00
2022-10-23T08:20:43.981Z,14.07
2022-10-23T08:23:18.405Z,14.12
2022-10-23T08:25:57.187Z,14.21
2022-10-23T08:28:29.233Z,14.32
2022-10-23T08:31:11.549Z,14.43
2022-10-23T08:33:44.583Z,14.55
2022-10-23T08:36:22.734Z,14.65
2022-10-23T08:38:56.328Z,14.74
2022-10-23T08:41:31.823Z,14.80
2022-10-23T08:44:36.814Z,14.87
2022-10-23T08:47:13.408Z,14.91
2022-10-23T08:49:49.875Z,14.96
2022-10-23T08:52:32.287Z,15.02
2022-10-23T08:55:16.812Z,15.12
2022-10-23T08:58:06.090Z,15.19
2022-10-23T09:00:38.049Z,15.26
2022-10-23T09:03:12.261Z,15.33
2022-10-23T09:06:07.530Z,15.40
2022-10-23T09:09:02.305Z,15.44
2022-10-23T09:11:49.391Z,15.48
2022-10-23T09:14:21.808Z,15.52
2022-10-23T09:16:57.305Z,15.55
2022-10-23T09:19:31.260Z,15.56
2022-10-23T09:22:03.209Z,15.58
2022-10-23T09:24:36.418Z,15.60
2022-10-23T09:27:16.898Z,15.64
2022-10-23T09:29:51.665Z,15.68
2022-10-23T09:32:34.594Z,15.71
2022-10-23T09:35:07.048Z,15.73
2022-10-23T09:37:46.175Z,15.77
2022-10-23T09:40:40.973Z,15.80
2022-10-23T09:43:17.654Z,15.85
2022-10-23T09:45:59.568Z,15.86
2022-10-23T09:48:31.942Z,15.87
2022-10-23T09:51:24.251Z,15.88
2022-10-23T09:53:59.790Z,15.93
2022-10-23T09:56:39.474Z,15.97
2022-10-23T09:59:11.281Z,16.02
2022-10-23T10:01:50.379Z,16.09
2022-10-23T10:04:58.329Z,16.18
2022-10-23T10:07:33.339Z,16.23
2022-10-23T10:10:15.111Z,16.30
2022-10-23T10:12:55.588Z,16.35
2022-10-23T10:15:36.487Z,16.42
2022-10-23T10:18:15.921Z,16.49
2022-10-23T10:20:53.830Z,16.55
2022-10-23T10:23:44.218Z,16.58
2022-10-23T10:26:44.464Z,16.63
2022-10-23T10:29:42.181Z,16.66
2022-10-23T10:32:32.535Z,16.71
2022-10-23T10:35:13.216Z,16.74
2022-10-23T10:38:03.622Z,16.79
2022-10-23T10:40:40.158Z,16.84
2022-10-23T10:43:27.599Z,16.89
2022-10-23T10:46:17.593Z,16.93
2022-10-23T10:48:53.005Z,16.98
2022-10-23T10:52:17.866Z,17.04
2022-10-23T10:55:13.672Z,17.09
2022-10-23T10:57:48.727Z,17.12
2022-10-23T11:00:22.581Z,17.16
2022-10-23T11:03:37.452Z,17.23
2022-10-23T11:06:21.050Z,17.27
2022-10-23T11:08:58.101Z,17.31
2022-10-23T11:11:38.321Z,17.39
2022-10-23T11:14:18.642Z,17.47
2022-10-23T11:16:59.905Z,17.55
2022-10-23T11:20:02.934Z,17.66
2022-10-23T11:22:44.109Z,17.82
2022-10-23T11:25:50.459Z,18.02
2022-10-23T11:28:50.444Z,18.30
2022-10-23T11:31:34.168Z,18.57
2022-10-23T11:34:44.904Z,18.82
2022-10-23T11:37:21.441Z,19.15
2022-10-23T11:40:08.222Z,19.47
2022-10-23T11:42:39.989Z,19.63
2022-10-23T11:45:31.565Z,19.70
2022-10-23T11:48:23.653Z,19.74
2022-10-23T11:50:56.480Z,19.75
2022-10-23T11:53:32.794Z,19.75
2022-10-23T11:56:12.498Z,19.80
2022-10-23T11:58:49.587Z,19.80
2022-10-23T12:01:31.427Z,19.83
2022-10-23T12:06:52.745Z,20.36
2022-10-23T12:10:20.509Z,20.72
2022-10-23T12:13:00.281Z,21.17
2022-10-23T12:15:34.874Z,21.48
2022-10-23T12:18:15.104Z,21.75
2022-10-23T12:21:13.555Z,22.03
2022-10-23T12:24:12.754Z,22.00
2022-10-23T12:26:59.662Z,21.82
2022-10-23T12:29:59.471Z,21.55
2022-10-23T12:32:37.198Z,21.22
2022-10-23T12:35:18.315Z,20.90
2022-10-23T12:38:10.266Z,20.58
2022-10-23T12:40:53.561Z,20.42
2022-10-23T12:43:25.491Z,20.26
2022-10-23T12:46:05.682Z,20.12
2022-10-23T12:48:48.040Z,19.95
2022-10-23T12:51:31.109Z,19.80
2022-10-23T12:54:03.849Z,19.61
2022-10-23T12:56:36.938Z,19.48
2022-10-23T12:59:17.494Z,19.42
2022-10-23T13:01:52.765Z,19.33
2022-10-23T13:04:30.688Z,19.26
2022-10-23T13:07:03.893Z,19.23
2022-10-23T13:09:41.442Z,19.17
2022-10-23T13:12:24.354Z,19.09
2022-10-23T13:15:12.429Z,19.03
2022-10-23T13:17:45.668Z,18.98
2022-10-23T13:20:17.797Z,18.94
2022-10-23T13:22:59.451Z,18.87
2022-10-23T13:25:34.977Z,18.80
2022-10-23T13:28:21.375Z,18.72
2022-10-23T13:31:12.327Z,18.69
2022-10-23T13:33:46.276Z,18.69
2022-10-23T13:36:18.709Z,18.71
2022-10-23T13:39:02.358Z,18.75
2022-10-23T13:41:41.131Z,18.76
2022-10-23T13:44:15.539Z,18.75
2022-10-23T13:46:48.463Z,18.76
2022-10-23T13:49:20.522Z,18.72
2022-10-23T13:51:55.570Z,18.69
2022-10-23T13:54:29.099Z,18.69
2022-10-23T13:57:01.243Z,18.68
2022-10-23T13:59:33.258Z,18.68
2022-10-23T14:02:17.764Z,18.66
2022-10-23T14:04:50.837Z,18.64
2022-10-23T14:07:22.675Z,18.62
2022-10-23T14:09:54.698Z,18.61
2022-10-23T14:12:26.502Z,18.59
2022-10-23T14:14:58.440Z,18.55
2022-10-23T14:17:30.325Z,18.54
2022-10-23T14:20:04.131Z,18.50
2022-10-23T14:22:38.011Z,18.47
2022-10-23T14:25:09.983Z,18.46
2022-10-23T14:27:41.903Z,18.44
2022-10-23T14:30:14.216Z,18.44
2022-10-23T14:32:46.493Z,18.43
2022-10-23T14:35:18.857Z,18.39
2022-10-23T14:37:50.753Z,18.38
2022-10-23T14:40:22.729Z,18.36
2022-10-23T14:42:54.633Z,18.33
2022-10-23T14:45:26.637Z,18.29
2022-10-23T14:48:00.913Z,18.26
2022-10-23T14:50:35.368Z,18.22
2022-10-23T14:53:07.298Z,18.20
2022-10-23T14:55:39.631Z,18.17
2022-10-23T14:58:11.550Z,18.16
2022-10-23T15:00:43.400Z,18.15
2022-10-23T15:03:15.795Z,18.12
2022-10-23T15:05:47.753Z,18.07
2022-10-23T15:08:20.677Z,18.04
2022-10-23T15:10:52.645Z,18.00
2022-10-23T15:13:24.565Z,17.96
2022-10-23T15:16:10.697Z,17.89
2022-10-23T15:18:42.811Z,17.87
2022-10-23T15:21:15.477Z,17.83
2022-10-23T15:23:48.527Z,17.80
2022-10-23T15:26:23.091Z,17.79
2022-10-23T15:28:59.646Z,17.74
2022-10-23T15:31:43.515Z,17.72
2022-10-23T15:34:21.774Z,17.68
2022-10-23T15:36:55.281Z,17.64
2022-10-23T15:39:29.422Z,17.61
2022-10-23T15:42:04.198Z,17.59
2022-10-23T15:44:36.471Z,17.59
2022-10-23T15:47:08.351Z,17.57
2022-10-23T15:49:40.324Z,17.56
2022-10-23T15:52:12.218Z,17.55
2022-10-23T15:54:44.251Z,17.54
2022-10-23T15:57:16.289Z,17.52
2022-10-23T15:59:48.200Z,17.49
2022-10-23T16:02:20.915Z,17.49
2022-10-23T16:04:52.999Z,17.48
2022-10-23T16:07:24.867Z,17.48
2022-10-23T16:09:57.149Z,17.47
2022-10-23T16:12:29.101Z,17.45
2022-10-23T16:15:01.015Z,17.45
2022-10-23T16:17:32.830Z,17.44
2022-10-23T16:20:05.150Z,17.43
2022-10-23T16:22:40.125Z,17.41
2022-10-23T16:25:14.994Z,17.40
2022-10-23T16:27:47.357Z,17.38
2022-10-23T16:30:21.205Z,17.38
2022-10-23T16:32:54.807Z,17.39
2022-10-23T16:35:26.713Z,17.37
2022-10-23T16:38:10.886Z,17.36
2022-10-23T16:40:42.845Z,17.37
2022-10-23T16:43:35.096Z,17.37
2022-10-23T16:46:35.406Z,17.36
2022-10-23T16:49:08.806Z,17.35
2022-10-23T16:51:40.587Z,17.34
2022-10-23T16:54:14.487Z,17.34
2022-10-23T16:56:47.299Z,17.34
2022-10-23T16:59:19.248Z,17.32
2022-10-23T17:01:51.292Z,17.31
2022-10-23T17:04:23.301Z,17.30
2022-10-23T17:06:55.301Z,17.29
2022-10-23T17:09:31.179Z,17.26
2022-10-23T17:12:03.290Z,17.24
2022-10-23T17:14:35.533Z,17.25
2022-10-23T17:17:09.735Z,17.21
2022-10-23T17:19:46.354Z,17.20
2022-10-23T17:22:18.730Z,17.18
2022-10-23T17:24:53.900Z,17.17
2022-10-23T17:27:26.303Z,17.16
2022-10-23T17:29:58.192Z,17.16
2022-10-23T17:32:30.120Z,17.16
2022-10-23T17:35:05.092Z,17.15
2022-10-23T17:37:37.015Z,17.13
2022-10-23T17:40:09.338Z,17.12
2022-10-23T17:42:41.757Z,17.09
2022-10-23T17:45:13.705Z,17.05
2022-10-23T17:47:45.574Z,17.02
2022-10-23T17:50:17.692Z,17.02
2022-10-23T17:52:49.643Z,17.00
2022-10-23T17:55:21.887Z,17.00
2022-10-23T17:57:53.755Z,16.99
2022-10-23T18:00:25.746Z,17.02
2022-10-23T18:02:57.557Z,17.01
2022-10-23T18:05:31.958Z,17.00
2022-10-23T18:08:03.806Z,17.00
2022-10-23T18:10:36.149Z,17.00
2022-10-23T18:13:07.953Z,17.00
2022-10-23T18:15:39.912Z,17.01
2022-10-23T18:18:11.901Z,17.01
2022-10-23T18:20:44.827Z,17.00
2022-10-23T18:23:16.683Z,17.00
2022-10-23T18:25:48.710Z,17.01
2022-10-23T18:28:20.836Z,17.01
2022-10-23T18:30:56.084Z,16.99
2022-10-23T18:33:29.092Z,16.98
2022-10-23T18:36:00.917Z,16.98
2022-10-23T18:38:32.816Z,16.96
2022-10-23T18:41:04.694Z,16.95
2022-10-23T18:43:43.752Z,16.94
2022-10-23T18:46:16.403Z,16.92
2022-10-23T18:48:50.743Z,16.91
2022-10-23T18:51:28.571Z,16.92
2022-10-23T18:54:07.527Z,16.89
2022-10-23T18:56:39.838Z,16.89
2022-10-23T18:59:14.550Z,16.89
2022-10-23T19:01:46.530Z,16.89
2022-10-23T19:04:19.035Z,16.89
2022-10-23T19:06:51.047Z,16.88
2022-10-23T19:09:23.010Z,16.87
2022-10-23T19:11:54.943Z,16.87
2022-10-23T19:14:28.692Z,16.89
2022-10-23T19:17:05.324Z,16.89
2022-10-23T19:19:43.436Z,16.88
2022-10-23T19:22:16.086Z,16.89
2022-10-23T19:24:57.081Z,16.89
2022-10-23T19:27:30.019Z,16.90
2022-10-23T19:30:03.440Z,16.91
2022-10-23T19:32:35.395Z,16.90
2022-10-23T19:35:08.394Z,16.91
2022-10-23T19:37:40.614Z,16.90
2022-10-23T19:40:14.164Z,16.90
2022-10-23T19:42:46.088Z,16.91
2022-10-23T19:45:18.103Z,16.90
2022-10-23T19:47:50.036Z,16.91
2022-10-23T19:50:22.230Z,16.90
2022-10-23T19:52:54.100Z,16.92
2022-10-23T19:55:26.084Z,16.93
2022-10-23T19:57:57.961Z,16.94
2022-10-23T20:00:29.842Z,16.96
2022-10-23T20:03:01.763Z,16.96
2022-10-23T20:05:33.608Z,16.96
2022-10-23T20:08:05.574Z,16.98
2022-10-23T20:10:46.534Z,16.98
2022-10-23T20:13:20.231Z,16.97
2022-10-23T20:15:52.499Z,16.97
2022-10-23T20:18:25.932Z,16.99
2022-10-23T20:21:01.425Z,17.00
2022-10-23T20:23:33.302Z,17.02
2022-10-23T20:26:10.448Z,17.00
2022-10-23T20:28:46.831Z,17.01
2022-10-23T20:31:20.085Z,17.01
2022-10-23T20:33:52.433Z,17.02
2022-10-23T20:36:26.460Z,17.02
2022-10-23T20:39:01.103Z,17.02
2022-10-23T20:41:36.822Z,17.01
2022-10-23T20:44:11.369Z,17.00
2022-10-23T20:46:43.911Z,16.97
2022-10-23T20:49:16.194Z,16.89
2022-10-23T20:51:55.156Z,16.72
2022-10-23T20:54:28.842Z,16.59
2022-10-23T20:57:01.070Z,16.51
2022-10-23T20:59:34.123Z,16.47
2022-10-23T21:02:06.320Z,16.43
2022-10-23T21:04:38.372Z,16.43
2022-10-23T21:07:11.414Z,16.45
2022-10-23T21:09:43.753Z,16.47
2022-10-23T21:12:15.728Z,16.51
2022-10-23T21:14:47.601Z,16.55
2022-10-23T21:17:19.458Z,16.59
2022-10-23T21:19:51.459Z,16.62
2022-10-23T21:22:23.273Z,16.64
2022-10-23T21:24:56.983Z,16.68
2022-10-23T21:27:29.039Z,16.68
2022-10-23T21:30:00.972Z,16.68
2022-10-23T21:32:33.071Z,16.71
2022-10-23T21:35:05.336Z,16.72
2022-10-23T21:37:37.194Z,16.74
2022-10-23T21:40:09.779Z,16.75
2022-10-23T21:42:41.631Z,16.74
2022-10-23T21:45:13.560Z,16.73
2022-10-23T21:47:45.665Z,16.71
2022-10-23T21:50:17.788Z,16.70
2022-10-23T21:52:52.602Z,16.71
2022-10-23T21:55:28.587Z,16.73
2022-10-23T21:58:00.465Z,16.82
2022-10-23T22:00:32.345Z,16.89
2022-10-23T22:03:04.212Z,16.96
2022-10-23T22:05:36.079Z,17.00
2022-10-23T22:08:08.076Z,17.08
2022-10-23T22:10:39.952Z,17.15
2022-10-23T22:13:11.755Z,17.18
2022-10-23T22:18:16.327Z,17.26
2022-10-23T22:20:48.182Z,17.28
2022-10-23T22:23:20.019Z,17.33
2022-10-23T22:25:51.904Z,17.37
2022-10-23T22:28:23.910Z,17.39
2022-10-23T22:30:55.878Z,17.42
2022-10-23T22:33:29.048Z,17.44
2022-10-23T22:36:02.247Z,17.46
2022-10-23T22:38:34.152Z,17.46
2022-10-23T22:41:07.186Z,17.45
2022-10-23T22:43:39.293Z,17.45
2022-10-23T22:46:13.174Z,17.44
2022-10-23T22:48:45.628Z,17.40
2022-10-23T22:51:19.322Z,17.38
2022-10-23T22:53:51.142Z,17.35
2022-10-23T22:56:25.757Z,17.32
2022-10-23T22:58:57.882Z,17.30
2022-10-23T23:01:33.167Z,17.27
2022-10-23T23:04:19.483Z,17.25
2022-10-23T23:06:57.008Z,17.22
2022-10-23T23:09:29.135Z,17.20
2022-10-23T23:12:00.962Z,17.15
2022-10-23T23:14:32.966Z,17.09
2022-10-23T23:17:05.923Z,17.06
2022-10-23T23:19:38.002Z,17.02
2022-10-23T23:22:09.852Z,16.94
2022-10-23T23:24:41.839Z,16.90
2022-10-23T23:27:13.682Z,16.85
2022-10-23T23:29:45.503Z,16.79
2022-10-23T23:32:17.382Z,16.74
2022-10-23T23:34:49.297Z,16.71
2022-10-23T23:37:21.479Z,16.67
2022-10-23T23:39:53.362Z,16.63
2022-10-23T23:42:25.247Z,16.61
2022-10-23T23:45:02.922Z,16.58
2022-10-23T23:47:45.730Z,16.55
2022-10-23T23:50:17.870Z,16.52
2022-10-23T23:52:49.866Z,16.50
2022-10-23T23:55:21.814Z,16.49
2022-10-23T23:57:53.697Z,16.47
